Aeroporto :
LOGIN :

Iscrizione | Disclaimer

   EN    FR    IT 

 










Sommario :    VFR   VFR Marginale   IFR   IFR Intensivo   IFR Molto Intensivo
Visibilità : 
Base nubi : 
>= 8 km
>= 3000ft
5 / 8 km
1000 / 3000 ft
1500m / 5 km
500 / 1000 ft
800 / 1500m
200 / 500 ft
< 800m
< 200 ft
Simboli :   Temporali  Nebbia  Neve Forte  Precipitazioni Forti  Vento > 20 kt
SIGMETs :   Varie  Temporali  Ghiacco  Turbolenza  Onda orograficha  Ceneri Vulcaniche






- Altitudine del aeroporto : 529 ft
- Codice IATA : CHR


LFLX - Chateauroux

ULTIMO METAR :
  • 231500Z AUTO 19013KT 9999 BKN046 BKN056 BKN066 24/13 Q1006 TEMPO 20015G25KT 2500 -TSRA SCT030CB

METARs OBSOLETI :
  • 231430Z AUTO 20016KT 9999 SCT044 SCT050 BKN066 24/13 Q1006 TEMPO 20015G25KT 2500 -TSRA SCT030CB
  • 231400Z AUTO 20013KT 9999 SCT043 BKN052 25/13 Q1007 TEMPO 20015G25KT 2500 -TSRA SCT030CB
  • 231330Z AUTO 21012KT 9999 FEW042 BKN049 BKN066 24/13 Q1007 TEMPO 20015G25KT 2500 -TSRA SCT030CB
  • 231300Z AUTO 19012KT 150V220 9999 BKN039 BKN062 24/14 Q1007 TEMPO 20015G25KT 4000 SHRA FEW030CB BKN030
  • 231230Z AUTO 19012KT 170V230 9999 BKN037 BKN044 BKN092 23/13 Q1008 TEMPO 20015G25KT 4000 SHRA FEW030CB BKN030

TAF TAF LFLX
Valido dal 23 a 12 ore il 24 a 18 ore UTC


231100Z 2312/2418 20010KT 9999 BKN035
TEMPO 2313/2319 20015G25KT 4000 SHRA FEW030CB BKN030
PROB40
TEMPO 2315/2319 2500 -TSRA SCT030CB
TEMPO 2319/2323 -RA BKN018
PROB30
TEMPO 2319/2324 24018G30KT
BECMG 2408/2410 20015G25KT
TEMPO 2410/2418 20018G30KT 4000 SHRA BKN035TCU
PROB30
TEMPO 2414/2418 2000 -TSRA SCT025CB BKN030



MetMap, La meteo Aeronautica in un colpo d'occhio ! - Copyright ORBIFLY Dicembre 2007 - Disclaimer

ORBIFLY MET'MAP TEAM :

Programmazione e sviluppo : Alexandra Zaïnal
Concezione : Baudouin d'Aumeries
Aiuto per la programmazione : Marc-Olivier Méhu
Supporto tecnico e logistico : Manuel Goepfert
Aiuto per la traduzione : Arnaldo La Scala

Contatto : metmap@orbifly.com




FONTI E CREDITI :

   NOAA